createdAt,value
2022-11-07T00:01:20.936Z,7.25
2022-11-07T00:03:48.138Z,7.25
2022-11-07T00:06:15.209Z,5.72
2022-11-07T00:08:42.189Z,7.38
2022-11-07T00:11:09.128Z,6.43
2022-11-07T00:13:36.024Z,7.25
2022-11-07T00:16:09.065Z,6.60
2022-11-07T00:18:36.578Z,5.82
2022-11-07T00:21:05.234Z,6.10
2022-11-07T00:23:32.315Z,5.55
2022-11-07T00:26:06.464Z,5.55
2022-11-07T00:28:37.583Z,6.13
2022-11-07T00:31:05.827Z,7.40
2022-11-07T00:33:34.035Z,5.93
2022-11-07T00:36:00.892Z,6.20
2022-11-07T00:38:28.049Z,6.20
2022-11-07T00:41:06.079Z,5.95
2022-11-07T00:43:33.524Z,6.43
2022-11-07T00:46:02.705Z,6.60
2022-11-07T00:48:30.517Z,5.35
2022-11-07T00:50:57.731Z,5.45
2022-11-07T00:53:24.669Z,5.45
2022-11-07T00:55:51.562Z,5.68
2022-11-07T00:58:18.437Z,6.00
2022-11-07T01:00:45.461Z,5.72
2022-11-07T01:03:30.980Z,6.47
2022-11-07T01:06:03.457Z,5.72
2022-11-07T01:08:30.838Z,6.55
2022-11-07T01:10:59.218Z,7.35
2022-11-07T01:13:26.757Z,6.68
2022-11-07T01:15:54.085Z,5.70
2022-11-07T01:18:21.862Z,6.22
2022-11-07T01:20:49.731Z,7.93
2022-11-07T01:23:18.181Z,6.82
2022-11-07T01:25:45.881Z,5.47
2022-11-07T01:28:12.743Z,5.35
2022-11-07T01:30:43.948Z,6.95
2022-11-07T01:33:11.895Z,5.32
2022-11-07T01:35:39.491Z,5.68
2022-11-07T01:38:06.515Z,5.55
2022-11-07T01:40:56.523Z,5.60
2022-11-07T01:43:23.435Z,5.97
2022-11-07T01:45:50.335Z,6.28
2022-11-07T01:48:17.253Z,6.38
2022-11-07T01:50:44.269Z,6.57
2022-11-07T01:53:11.247Z,5.97
2022-11-07T01:55:38.185Z,5.05
2022-11-07T01:58:09.563Z,5.30
2022-11-07T02:00:39.322Z,5.45
2022-11-07T02:03:10.914Z,6.53
2022-11-07T02:05:45.319Z,4.82
2022-11-07T02:08:14.023Z,5.18
2022-11-07T02:10:42.345Z,7.20
2022-11-07T02:13:11.661Z,5.85
2022-11-07T02:15:38.910Z,4.75
2022-11-07T02:18:06.010Z,6.32
2022-11-07T02:20:32.845Z,7.05
2022-11-07T02:23:11.168Z,4.55
2022-11-07T02:25:38.285Z,4.88
2022-11-07T02:28:09.049Z,4.55
2022-11-07T02:30:36.248Z,4.15
2022-11-07T02:33:03.496Z,4.70
2022-11-07T02:35:45.097Z,6.15
2022-11-07T02:38:36.693Z,4.63
2022-11-07T02:41:05.487Z,5.68
2022-11-07T02:43:34.869Z,3.85
2022-11-07T02:46:05.858Z,4.20
2022-11-07T02:48:41.322Z,4.88
2022-11-07T02:51:08.361Z,4.38
2022-11-07T02:53:35.256Z,4.00
2022-11-07T02:56:02.242Z,4.68
2022-11-07T02:58:29.141Z,4.07
2022-11-07T03:01:02.939Z,4.13
2022-11-07T03:03:30.567Z,4.78
2022-11-07T03:05:57.577Z,3.67
2022-11-07T03:08:24.512Z,3.45
2022-11-07T03:10:51.445Z,3.40
2022-11-07T03:13:18.307Z,4.13
2022-11-07T03:15:45.266Z,3.72
2022-11-07T03:18:12.127Z,3.63
2022-11-07T03:20:39.104Z,3.95
2022-11-07T03:23:06.075Z,3.97
2022-11-07T03:25:33.035Z,5.93
2022-11-07T03:27:59.952Z,3.47
2022-11-07T03:30:27.000Z,6.70
2022-11-07T03:32:54.727Z,4.90
2022-11-07T03:35:22.501Z,4.97
2022-11-07T03:37:50.351Z,3.78
2022-11-07T03:40:17.733Z,4.82
2022-11-07T03:42:45.673Z,3.17
2022-11-07T03:45:14.544Z,4.82
2022-11-07T03:47:42.951Z,4.28
2022-11-07T03:50:12.765Z,5.05
2022-11-07T03:52:39.688Z,3.95
2022-11-07T03:55:07.208Z,5.32
2022-11-07T03:57:34.242Z,2.75
2022-11-07T04:00:01.166Z,4.70
2022-11-07T04:02:28.306Z,3.85
2022-11-07T04:04:55.383Z,3.58
2022-11-07T04:07:22.385Z,3.90
2022-11-07T04:09:49.364Z,4.68
2022-11-07T04:12:34.540Z,4.28
2022-11-07T04:15:19.987Z,3.92
2022-11-07T04:17:46.929Z,5.18
2022-11-07T04:20:13.902Z,3.20
2022-11-07T04:22:40.849Z,5.82
2022-11-07T04:25:08.571Z,4.00
2022-11-07T04:27:44.598Z,3.70
2022-11-07T04:30:21.830Z,5.80
2022-11-07T04:32:50.816Z,3.75
2022-11-07T04:35:19.344Z,4.57
2022-11-07T04:37:47.267Z,4.65
2022-11-07T04:40:15.708Z,5.30
2022-11-07T04:42:42.804Z,4.60
2022-11-07T04:45:10.660Z,4.22
2022-11-07T04:47:40.775Z,4.88
2022-11-07T04:50:11.105Z,4.82
2022-11-07T04:52:38.591Z,5.00
2022-11-07T04:55:06.882Z,3.80
2022-11-07T04:57:33.830Z,5.60
2022-11-07T05:00:00.863Z,5.20
2022-11-07T05:02:28.462Z,4.65
2022-11-07T05:04:55.517Z,5.05
2022-11-07T05:07:22.443Z,5.07
2022-11-07T05:09:49.432Z,5.28
2022-11-07T05:12:16.508Z,7.90
2022-11-07T05:14:43.594Z,5.78
2022-11-07T05:17:15.404Z,5.50
2022-11-07T05:19:47.822Z,5.65
2022-11-07T05:22:33.260Z,4.53
2022-11-07T05:25:00.196Z,4.82
2022-11-07T05:27:27.170Z,4.70
2022-11-07T05:29:54.168Z,5.53
2022-11-07T05:32:21.100Z,6.00
2022-11-07T05:34:49.031Z,5.78
2022-11-07T05:37:15.964Z,6.20
2022-11-07T05:39:42.834Z,5.20
2022-11-07T05:42:09.826Z,6.10
2022-11-07T05:44:36.848Z,5.47
2022-11-07T05:47:04.073Z,5.50
2022-11-07T05:49:31.025Z,5.78
2022-11-07T05:51:57.970Z,4.93
2022-11-07T05:54:27.982Z,5.88
2022-11-07T05:56:58.378Z,6.00
2022-11-07T05:59:25.889Z,6.57
2022-11-07T06:01:53.826Z,6.70
2022-11-07T06:04:20.988Z,6.70
2022-11-07T06:10:00.294Z,7.40
2022-11-07T06:12:27.237Z,7.45
2022-11-07T06:14:54.284Z,5.72
2022-11-07T06:17:21.232Z,7.03
2022-11-07T06:19:48.177Z,6.55
2022-11-07T06:22:15.118Z,5.85
2022-11-07T06:24:42.100Z,7.93
2022-11-07T06:27:09.117Z,6.57
2022-11-07T06:29:36.041Z,6.53
2022-11-07T06:32:03.346Z,5.45
2022-11-07T06:34:30.291Z,10.02
2022-11-07T06:37:02.895Z,6.97
2022-11-07T06:39:30.425Z,7.30
2022-11-07T06:41:57.344Z,6.50
2022-11-07T06:44:24.229Z,6.82
2022-11-07T06:46:51.141Z,6.68
2022-11-07T06:49:18.039Z,5.78
2022-11-07T06:51:47.815Z,5.57
2022-11-07T06:54:15.162Z,8.45
2022-11-07T06:56:43.140Z,5.70
2022-11-07T06:59:10.069Z,7.60
2022-11-07T07:01:36.972Z,7.47
2022-11-07T07:04:05.408Z,7.00
2022-11-07T07:06:32.345Z,6.13
2022-11-07T07:08:59.353Z,5.72
2022-11-07T07:11:26.271Z,4.68
2022-11-07T07:13:59.627Z,5.40
2022-11-07T07:16:29.027Z,6.22
2022-11-07T07:18:55.937Z,5.22
2022-11-07T07:21:23.061Z,5.38
2022-11-07T07:23:50.238Z,5.55
2022-11-07T07:26:17.559Z,6.95
2022-11-07T07:28:44.578Z,6.55
2022-11-07T07:31:14.275Z,6.25
2022-11-07T07:33:45.449Z,6.88
2022-11-07T07:36:17.848Z,7.88
2022-11-07T07:38:48.204Z,7.88
2022-11-07T07:41:15.149Z,10.55
2022-11-07T07:43:42.134Z,7.75
2022-11-07T07:46:13.381Z,9.50
2022-11-07T07:48:40.302Z,9.30
2022-11-07T07:51:07.377Z,9.70
2022-11-07T07:53:34.325Z,10.75
2022-11-07T07:56:03.003Z,9.48
2022-11-07T07:58:29.924Z,8.85
2022-11-07T08:00:59.890Z,9.98
2022-11-07T08:03:32.132Z,9.35
2022-11-07T08:06:07.011Z,8.50
2022-11-07T08:08:38.209Z,8.38
2022-11-07T08:11:07.894Z,9.32
2022-11-07T08:13:37.981Z,8.55
2022-11-07T08:16:07.822Z,8.65
2022-11-07T08:18:36.725Z,9.02
2022-11-07T08:21:03.906Z,9.00
2022-11-07T08:23:31.288Z,10.77
2022-11-07T08:25:59.941Z,8.48
2022-11-07T08:28:29.863Z,9.35
2022-11-07T08:31:01.240Z,10.18
2022-11-07T08:33:28.941Z,9.65
2022-11-07T08:35:57.802Z,9.80
2022-11-07T08:38:24.715Z,11.13
2022-11-07T08:40:51.933Z,9.30
2022-11-07T08:43:19.619Z,7.90
2022-11-07T08:45:47.834Z,9.98
2022-11-07T08:48:16.435Z,8.77
2022-11-07T08:50:43.668Z,7.95
2022-11-07T08:53:11.406Z,8.45
2022-11-07T08:55:38.812Z,7.05
2022-11-07T08:58:08.146Z,7.72
2022-11-07T09:00:36.122Z,7.53
2022-11-07T09:05:51.829Z,6.97
2022-11-07T09:08:19.140Z,7.45
2022-11-07T09:10:46.062Z,8.05
2022-11-07T09:13:15.136Z,7.43
2022-11-07T09:15:47.684Z,7.30
2022-11-07T09:20:43.327Z,7.43
2022-11-07T09:23:10.269Z,8.02
2022-11-07T09:25:37.209Z,6.50
2022-11-07T09:28:04.461Z,6.95
2022-11-07T09:30:32.027Z,7.55
2022-11-07T09:32:59.710Z,8.88
2022-11-07T09:35:27.208Z,7.40
2022-11-07T09:37:54.091Z,7.10
2022-11-07T09:40:24.767Z,5.97
2022-11-07T09:43:14.167Z,5.93
2022-11-07T09:45:58.777Z,6.32
2022-11-07T09:48:31.886Z,5.03
2022-11-07T09:51:00.653Z,8.70
2022-11-07T09:53:44.717Z,6.38
2022-11-07T09:56:13.286Z,4.65
2022-11-07T09:58:51.614Z,5.60
2022-11-07T10:01:21.306Z,4.70
2022-11-07T10:04:22.464Z,6.65
2022-11-07T10:06:49.287Z,5.93
2022-11-07T10:09:42.409Z,5.47
2022-11-07T10:12:43.212Z,6.10
2022-11-07T10:15:17.585Z,6.75
2022-11-07T10:18:09.337Z,4.17
2022-11-07T10:21:30.978Z,4.78
2022-11-07T10:24:03.693Z,5.13
2022-11-07T10:26:31.931Z,6.82
2022-11-07T10:29:10.901Z,4.65
2022-11-07T10:31:42.429Z,5.40
2022-11-07T10:34:23.016Z,4.50
2022-11-07T10:36:50.282Z,4.43
2022-11-07T10:39:19.671Z,4.63
2022-11-07T10:42:07.246Z,4.68
2022-11-07T10:44:35.345Z,3.90
2022-11-07T10:47:03.547Z,4.63
2022-11-07T10:49:32.700Z,3.38
2022-11-07T10:52:16.909Z,4.10
2022-11-07T10:54:45.095Z,3.65
2022-11-07T10:57:17.410Z,5.18
2022-11-07T10:59:53.196Z,4.68
2022-11-07T11:02:22.808Z,5.05
2022-11-07T11:04:54.180Z,4.05
2022-11-07T11:07:28.348Z,5.50
2022-11-07T11:09:58.081Z,5.10
2022-11-07T11:12:34.107Z,5.40
2022-11-07T11:15:13.692Z,4.22
2022-11-07T11:17:41.076Z,4.93
2022-11-07T11:20:33.002Z,3.75
2022-11-07T11:23:01.942Z,3.63
2022-11-07T11:25:28.883Z,6.35
2022-11-07T11:28:02.642Z,5.22
2022-11-07T11:30:32.045Z,4.50
2022-11-07T11:33:12.077Z,4.50
2022-11-07T11:35:54.259Z,5.75
2022-11-07T11:38:39.415Z,7.03
2022-11-07T11:41:32.351Z,3.47
2022-11-07T11:44:03.586Z,4.15
2022-11-07T11:46:33.327Z,4.55
2022-11-07T11:49:15.402Z,4.75
2022-11-07T11:51:54.125Z,4.50
2022-11-07T11:54:21.164Z,4.03
2022-11-07T11:56:58.967Z,3.42
2022-11-07T11:59:40.909Z,4.25
2022-11-07T12:02:38.555Z,4.32
2022-11-07T12:05:23.663Z,4.95
2022-11-07T12:08:09.214Z,5.63
2022-11-07T12:10:54.002Z,5.47
2022-11-07T12:13:44.531Z,3.88
2022-11-07T12:16:35.941Z,4.72
2022-11-07T12:19:39.299Z,3.33
2022-11-07T12:22:24.342Z,4.63
2022-11-07T12:25:12.596Z,3.10
2022-11-07T12:27:48.246Z,3.42
2022-11-07T12:30:39.961Z,3.20
2022-11-07T12:33:19.513Z,3.97
2022-11-07T12:36:02.291Z,3.20
2022-11-07T12:39:05.809Z,3.67
2022-11-07T12:41:39.429Z,2.78
2022-11-07T12:44:56.814Z,3.75
2022-11-07T12:47:32.486Z,4.93
2022-11-07T12:50:25.697Z,3.00
2022-11-07T12:53:10.680Z,2.95
2022-11-07T12:55:50.241Z,3.63
2022-11-07T12:58:28.100Z,3.35
2022-11-07T13:00:55.950Z,2.88
2022-11-07T13:03:54.734Z,4.82
2022-11-07T13:07:03.653Z,3.13
2022-11-07T13:09:36.072Z,2.47
2022-11-07T13:12:18.252Z,3.65
2022-11-07T13:14:45.604Z,4.30
2022-11-07T13:17:14.435Z,3.25
2022-11-07T13:19:46.784Z,2.80
2022-11-07T13:22:13.700Z,3.35
2022-11-07T13:25:10.478Z,3.20
2022-11-07T13:27:43.058Z,3.70
2022-11-07T13:30:13.108Z,4.32
2022-11-07T13:32:42.207Z,3.58
2022-11-07T13:35:24.438Z,2.75
2022-11-07T13:38:03.204Z,5.82
2022-11-07T13:40:37.794Z,3.08
2022-11-07T13:43:15.327Z,4.30
2022-11-07T13:45:49.263Z,3.88
2022-11-07T13:48:23.838Z,4.90
2022-11-07T13:51:09.718Z,4.18
2022-11-07T13:54:03.249Z,3.70
2022-11-07T13:56:41.735Z,4.80
2022-11-07T13:59:18.929Z,3.85
2022-11-07T14:01:46.057Z,4.70
2022-11-07T14:04:22.643Z,3.78
2022-11-07T14:06:50.935Z,3.78
2022-11-07T14:09:20.441Z,3.45
2022-11-07T14:11:51.114Z,3.50
2022-11-07T14:14:18.176Z,3.83
2022-11-07T14:16:46.578Z,4.70
2022-11-07T14:19:17.483Z,3.97
2022-11-07T14:21:46.790Z,3.33
2022-11-07T14:24:31.354Z,4.00
2022-11-07T14:27:08.719Z,5.40
2022-11-07T14:29:35.712Z,5.18
2022-11-07T14:32:05.079Z,3.85
2022-11-07T14:34:36.212Z,4.57
2022-11-07T14:37:06.649Z,4.72
2022-11-07T14:39:34.037Z,3.90
2022-11-07T14:42:03.422Z,5.10
2022-11-07T14:47:32.452Z,4.53
2022-11-07T14:50:01.857Z,4.07
2022-11-07T14:52:42.299Z,5.30
2022-11-07T14:55:17.639Z,5.57
2022-11-07T14:57:45.337Z,5.32
2022-11-07T15:00:15.875Z,4.63
2022-11-07T15:02:45.339Z,4.82
2022-11-07T15:05:41.983Z,6.53
2022-11-07T15:08:54.695Z,7.88
2022-11-07T15:11:34.179Z,5.78
2022-11-07T15:14:03.149Z,4.20
2022-11-07T15:16:36.465Z,5.07
2022-11-07T15:19:05.248Z,4.63
2022-11-07T15:21:34.218Z,4.10
2022-11-07T15:24:27.154Z,7.68
2022-11-07T15:27:25.005Z,4.82
2022-11-07T15:29:57.112Z,4.32
2022-11-07T15:32:56.705Z,5.07
2022-11-07T15:35:44.018Z,5.88
2022-11-07T15:38:25.442Z,4.95
2022-11-07T15:40:52.676Z,4.88
2022-11-07T15:43:20.531Z,5.22
2022-11-07T15:45:52.461Z,5.22
2022-11-07T15:48:28.481Z,4.28
2022-11-07T15:50:55.631Z,5.95
2022-11-07T15:53:25.072Z,5.55
2022-11-07T15:55:58.110Z,4.22
2022-11-07T15:58:27.827Z,6.83
2022-11-07T16:00:55.848Z,5.78
2022-11-07T16:03:25.413Z,6.80
2022-11-07T16:05:54.838Z,6.10
2022-11-07T16:08:24.303Z,5.43
2022-11-07T16:10:58.682Z,5.30
2022-11-07T16:13:25.570Z,4.82
2022-11-07T16:15:58.251Z,7.68
2022-11-07T16:18:25.315Z,6.47
2022-11-07T16:20:52.394Z,7.07
2022-11-07T16:23:20.017Z,5.68
2022-11-07T16:25:50.033Z,6.57
2022-11-07T16:28:30.944Z,8.13
2022-11-07T16:30:58.174Z,7.32
2022-11-07T16:33:26.214Z,7.07
2022-11-07T16:35:56.196Z,6.53
2022-11-07T16:38:24.817Z,10.55
2022-11-07T16:40:52.753Z,7.22
2022-11-07T16:43:20.545Z,7.10
2022-11-07T16:45:51.014Z,7.03
2022-11-07T16:48:19.468Z,6.88
2022-11-07T16:50:50.019Z,6.93
2022-11-07T16:53:17.114Z,7.88
2022-11-07T16:55:52.225Z,7.38
2022-11-07T16:58:27.118Z,6.97
2022-11-07T17:00:56.729Z,6.45
2022-11-07T17:03:24.857Z,10.40
2022-11-07T17:05:53.719Z,8.07
2022-11-07T17:08:29.202Z,9.35
2022-11-07T17:10:56.021Z,5.97
2022-11-07T17:13:23.221Z,7.75
2022-11-07T17:15:51.390Z,5.95
2022-11-07T17:18:23.472Z,6.68
2022-11-07T17:20:53.398Z,7.63
2022-11-07T17:23:30.010Z,6.75
2022-11-07T17:26:04.522Z,7.72
2022-11-07T17:28:31.578Z,10.85
2022-11-07T17:30:58.546Z,7.13
2022-11-07T17:33:25.459Z,10.45
2022-11-07T17:35:55.378Z,8.90
2022-11-07T17:38:22.276Z,8.27
2022-11-07T17:40:49.252Z,8.85
2022-11-07T17:43:16.116Z,7.68
2022-11-07T17:45:43.140Z,6.95
2022-11-07T17:48:12.858Z,7.57
2022-11-07T17:50:40.537Z,7.80
2022-11-07T17:53:07.431Z,6.13
2022-11-07T17:55:34.380Z,7.25
2022-11-07T17:58:01.255Z,7.60
2022-11-07T18:00:28.257Z,7.47
2022-11-07T18:02:55.336Z,6.38
2022-11-07T18:05:25.573Z,6.35
2022-11-07T18:07:55.761Z,7.70
2022-11-07T18:10:22.820Z,6.88
2022-11-07T18:12:49.811Z,7.80
2022-11-07T18:15:16.810Z,7.50
2022-11-07T18:17:44.040Z,6.55
2022-11-07T18:20:11.132Z,7.40
2022-11-07T18:22:38.153Z,8.48
2022-11-07T18:25:07.900Z,8.20
2022-11-07T18:27:35.723Z,6.38
2022-11-07T18:30:03.819Z,8.27
2022-11-07T18:32:35.779Z,8.25
2022-11-07T18:35:06.275Z,8.52
2022-11-07T18:37:33.746Z,8.13
2022-11-07T18:40:00.696Z,9.63
2022-11-07T18:42:29.122Z,7.90
2022-11-07T18:44:56.018Z,9.93
2022-11-07T18:47:23.214Z,6.43
2022-11-07T18:49:55.584Z,6.93
2022-11-07T18:52:24.255Z,8.25
2022-11-07T18:54:51.816Z,6.78
2022-11-07T18:57:18.735Z,5.95
2022-11-07T18:59:46.493Z,6.95
2022-11-07T19:02:14.308Z,7.60
2022-11-07T19:04:43.655Z,8.20
2022-11-07T19:07:10.875Z,6.32
2022-11-07T19:09:38.259Z,8.18
2022-11-07T19:12:05.702Z,8.38
2022-11-07T19:14:32.656Z,8.05
2022-11-07T19:16:59.623Z,9.10
2022-11-07T19:19:26.636Z,7.78
2022-11-07T19:21:53.606Z,7.85
2022-11-07T19:24:20.540Z,5.97
2022-11-07T19:26:47.553Z,6.32
2022-11-07T19:29:14.534Z,5.50
2022-11-07T19:31:41.554Z,7.78
2022-11-07T19:34:08.581Z,5.90
2022-11-07T19:36:37.135Z,5.40
2022-11-07T19:39:04.539Z,7.63
2022-11-07T19:41:31.386Z,6.22
2022-11-07T19:44:01.714Z,14.52
2022-11-07T19:46:28.751Z,8.15
2022-11-07T19:48:56.452Z,6.25
2022-11-07T19:51:23.662Z,5.82
2022-11-07T19:53:55.799Z,5.47
2022-11-07T19:56:24.117Z,4.70
2022-11-07T19:58:51.543Z,5.57
2022-11-07T20:01:21.639Z,4.93
2022-11-07T20:03:51.133Z,5.00
2022-11-07T20:06:21.624Z,5.50
2022-11-07T20:08:48.766Z,5.88
2022-11-07T20:11:26.366Z,6.35
2022-11-07T20:14:00.064Z,5.63
2022-11-07T20:16:29.096Z,4.85
2022-11-07T20:18:56.437Z,4.13
2022-11-07T20:21:24.700Z,4.82
2022-11-07T20:23:57.126Z,4.85
2022-11-07T20:26:25.994Z,5.70
2022-11-07T20:28:53.551Z,4.00
2022-11-07T20:31:25.417Z,3.85
2022-11-07T20:33:53.059Z,6.10
2022-11-07T20:36:20.969Z,4.20
2022-11-07T20:38:47.974Z,5.88
2022-11-07T20:41:15.546Z,4.82
2022-11-07T20:43:43.969Z,4.97
2022-11-07T20:46:14.947Z,5.25
2022-11-07T20:48:45.610Z,4.03
2022-11-07T20:51:21.782Z,4.85
2022-11-07T20:53:50.681Z,4.55
2022-11-07T20:56:19.813Z,4.35
2022-11-07T20:58:47.291Z,3.90
2022-11-07T21:01:17.554Z,5.63
2022-11-07T21:03:45.236Z,3.63
2022-11-07T21:06:12.587Z,3.72
2022-11-07T21:08:41.451Z,3.65
2022-11-07T21:11:09.040Z,4.30
2022-11-07T21:13:36.444Z,4.53
2022-11-07T21:16:03.950Z,4.05
2022-11-07T21:18:30.995Z,3.13
2022-11-07T21:21:11.416Z,3.97
2022-11-07T21:23:39.166Z,4.63
2022-11-07T21:26:08.215Z,2.95
2022-11-07T21:28:35.530Z,3.42
2022-11-07T21:31:04.797Z,3.00
2022-11-07T21:33:31.863Z,3.40
2022-11-07T21:35:58.769Z,4.10
2022-11-07T21:38:26.236Z,3.85
2022-11-07T21:40:53.682Z,3.28
2022-11-07T21:43:20.712Z,3.78
2022-11-07T21:45:47.588Z,2.80
2022-11-07T21:48:16.627Z,3.47
2022-11-07T21:50:45.249Z,3.95
2022-11-07T21:53:12.519Z,3.72
2022-11-07T21:55:39.419Z,4.13
2022-11-07T21:58:06.432Z,2.60
2022-11-07T22:00:36.676Z,3.75
2022-11-07T22:03:04.707Z,4.13
2022-11-07T22:05:31.867Z,2.83
2022-11-07T22:07:58.901Z,3.65
2022-11-07T22:10:25.842Z,2.95
2022-11-07T22:12:52.945Z,3.88
2022-11-07T22:15:22.862Z,3.97
2022-11-07T22:17:49.772Z,3.65
2022-11-07T22:20:16.727Z,3.95
2022-11-07T22:22:43.611Z,3.38
2022-11-07T22:25:10.722Z,3.47
2022-11-07T22:27:37.782Z,4.68
2022-11-07T22:30:05.815Z,4.75
2022-11-07T22:32:32.930Z,3.95
2022-11-07T22:35:02.537Z,4.72
2022-11-07T22:37:31.794Z,4.47
2022-11-07T22:39:59.303Z,4.00
2022-11-07T22:42:28.203Z,5.10
2022-11-07T22:44:55.080Z,3.33
2022-11-07T22:47:22.099Z,3.20
2022-11-07T22:49:51.505Z,3.75
2022-11-07T22:52:18.498Z,3.53
2022-11-07T22:54:45.381Z,3.80
2022-11-07T22:57:17.564Z,4.93
2022-11-07T22:59:44.837Z,3.40
2022-11-07T23:02:11.826Z,3.80
2022-11-07T23:04:38.738Z,3.05
2022-11-07T23:07:05.698Z,4.53
2022-11-07T23:09:32.546Z,4.25
2022-11-07T23:12:00.533Z,4.22
2022-11-07T23:14:27.513Z,4.28
2022-11-07T23:16:57.548Z,3.17
2022-11-07T23:19:26.757Z,3.38
2022-11-07T23:21:55.144Z,3.78
2022-11-07T23:24:22.439Z,5.25
2022-11-07T23:26:49.879Z,3.30
2022-11-07T23:29:20.258Z,3.17
2022-11-07T23:31:48.540Z,3.92
2022-11-07T23:34:15.786Z,3.60
2022-11-07T23:36:46.159Z,4.00
2022-11-07T23:39:16.257Z,3.35
2022-11-07T23:41:43.612Z,4.18
2022-11-07T23:44:10.829Z,4.55
2022-11-07T23:46:56.498Z,5.38
2022-11-07T23:49:41.805Z,3.38
2022-11-07T23:52:08.858Z,3.75
2022-11-07T23:54:54.194Z,4.05
2022-11-07T23:57:21.164Z,3.47
